createdAt,value
2019-04-28T00:03:56.000Z,47.033
2019-04-28T00:13:56.000Z,46.965
2019-04-28T00:23:56.000Z,46.778
2019-04-28T00:33:56.000Z,46.883
2019-04-28T00:43:58.000Z,46.815
2019-04-28T00:53:56.000Z,46.695
2019-04-28T01:03:56.000Z,46.681
2019-04-28T01:13:56.000Z,46.581
2019-04-28T01:23:56.000Z,46.526
2019-04-28T01:33:58.000Z,46.522
2019-04-28T01:43:57.000Z,46.434
2019-04-28T01:53:58.000Z,46.357
2019-04-28T02:03:57.000Z,46.366
2019-04-28T02:13:57.000Z,46.308
2019-04-28T02:23:59.000Z,46.305
2019-04-28T02:33:57.000Z,46.208
2019-04-28T02:43:57.000Z,46.247
2019-04-28T02:53:59.000Z,46.265
2019-04-28T03:03:57.000Z,46.242
2019-04-28T03:13:57.000Z,46.229
2019-04-28T03:23:57.000Z,46.184
2019-04-28T03:33:57.000Z,46.192
2019-04-28T03:43:59.000Z,46.201
2019-04-28T03:53:57.000Z,46.166
2019-04-28T04:03:57.000Z,46.208
2019-04-28T04:13:57.000Z,46.142
2019-04-28T04:23:57.000Z,45.957
2019-04-28T04:33:57.000Z,45.965
2019-04-28T04:43:58.000Z,45.943
2019-04-28T04:53:58.000Z,45.919
2019-04-28T05:03:57.000Z,46.004
2019-04-28T05:13:58.000Z,46.077
2019-04-28T05:23:57.000Z,46
2019-04-28T05:33:57.000Z,45.946
2019-04-28T05:43:57.000Z,45.935
2019-04-28T05:53:57.000Z,45.934
2019-04-28T06:03:57.000Z,45.922
2019-04-28T06:13:57.000Z,45.869
2019-04-28T06:23:57.000Z,45.888
2019-04-28T06:33:57.000Z,45.734
2019-04-28T06:43:59.000Z,45.65
2019-04-28T06:53:57.000Z,45.714
2019-04-28T07:13:57.000Z,45.673
2019-04-28T07:23:57.000Z,45.641
2019-04-28T07:33:57.000Z,45.621
2019-04-28T07:43:57.000Z,45.306
2019-04-28T07:53:57.000Z,45.353
2019-04-28T08:03:57.000Z,45.783
2019-04-28T08:13:57.000Z,46.378
2019-04-28T08:23:58.000Z,46.951
2019-04-28T08:33:57.000Z,47.241
2019-04-28T08:43:57.000Z,47.297
2019-04-28T08:53:57.000Z,47.385
2019-04-28T09:03:57.000Z,47.339
2019-04-28T09:13:59.000Z,47.431
2019-04-28T09:33:57.000Z,47.172
2019-04-28T09:43:57.000Z,47.11
2019-04-28T09:53:57.000Z,47.211
2019-04-28T10:03:57.000Z,47.133
2019-04-28T10:13:58.000Z,48.407
2019-04-28T10:23:57.000Z,49.083
2019-04-28T10:33:58.000Z,49.279
2019-04-28T10:53:58.000Z,49.165
2019-04-28T11:03:58.000Z,49.407
2019-04-28T11:13:58.000Z,49.527
2019-04-28T11:23:58.000Z,49.19
2019-04-28T11:33:58.000Z,49.28
2019-04-28T11:43:58.000Z,49.094
2019-04-28T11:53:58.000Z,49.006
2019-04-28T12:03:58.000Z,48.839
2019-04-28T12:13:58.000Z,49.013
2019-04-28T12:23:58.000Z,48.912
2019-04-28T12:33:58.000Z,48.995
2019-04-28T12:43:59.000Z,48.637
2019-04-28T12:53:58.000Z,48.523
2019-04-28T13:03:58.000Z,48.785
2019-04-28T13:13:58.000Z,48.708
2019-04-28T13:33:58.000Z,48.736
2019-04-28T13:53:58.000Z,48.714
2019-04-28T14:03:58.000Z,48.541
2019-04-28T14:13:58.000Z,48.358
2019-04-28T14:33:58.000Z,48.285
2019-04-28T14:43:58.000Z,48.305
2019-04-28T14:53:58.000Z,48.152
2019-04-28T15:03:59.000Z,47.999
2019-04-28T15:13:58.000Z,48.073
2019-04-28T15:23:58.000Z,48.037
2019-04-28T15:34:00.000Z,47.97
2019-04-28T15:43:58.000Z,47.904
2019-04-28T15:53:58.000Z,47.816
2019-04-28T16:03:58.000Z,48.083
2019-04-28T16:13:58.000Z,48.038
2019-04-28T16:23:58.000Z,48.314
2019-04-28T16:33:58.000Z,48.237
2019-04-28T16:44:02.000Z,48.214
2019-04-28T16:53:58.000Z,48.212
2019-04-28T17:03:58.000Z,47.913
2019-04-28T17:13:58.000Z,47.847
2019-04-28T17:23:58.000Z,48.009
2019-04-28T17:33:58.000Z,48.539
2019-04-28T17:43:59.000Z,47.986
2019-04-28T17:53:58.000Z,48.008
2019-04-28T18:03:59.000Z,48.254
2019-04-28T18:23:58.000Z,48.291
2019-04-28T18:33:58.000Z,48.439
2019-04-28T18:43:59.000Z,48.406
2019-04-28T18:53:59.000Z,48.371
2019-04-28T19:03:59.000Z,48.432
2019-04-28T19:14:02.000Z,48.441
2019-04-28T19:24:01.000Z,48.558
2019-04-28T19:34:00.000Z,48.32
2019-04-28T19:43:59.000Z,48.501
2019-04-28T19:53:59.000Z,48.348
2019-04-28T20:03:59.000Z,48.306
2019-04-28T20:13:59.000Z,48.377
2019-04-28T20:23:59.000Z,48.759
2019-04-28T20:33:59.000Z,48.611
2019-04-28T20:43:59.000Z,48.825
2019-04-28T20:53:59.000Z,48.867
2019-04-28T21:03:59.000Z,48.908
2019-04-28T21:14:01.000Z,49.166
2019-04-28T21:23:59.000Z,49.415
2019-04-28T21:33:59.000Z,49.436
2019-04-28T21:43:59.000Z,49.738
2019-04-28T21:54:00.000Z,49.783
2019-04-28T22:03:59.000Z,49.399
2019-04-28T22:13:59.000Z,49.615
2019-04-28T22:23:59.000Z,49.44
2019-04-28T22:33:59.000Z,49.21
2019-04-28T22:43:59.000Z,49.28
2019-04-28T22:53:59.000Z,49.414
2019-04-28T23:03:59.000Z,49.366
2019-04-28T23:13:59.000Z,49.425
2019-04-28T23:23:59.000Z,49.463
2019-04-28T23:33:59.000Z,49.492
2019-04-28T23:43:59.000Z,49.476
2019-04-28T23:53:59.000Z,49.451
